createdAt,value
2023-01-28T00:00:10.894Z,0.96
2023-01-28T00:01:13.786Z,0.96
2023-01-28T00:02:15.644Z,0.94
2023-01-28T00:03:17.588Z,0.93
2023-01-28T00:04:19.769Z,0.94
2023-01-28T00:05:23.354Z,0.93
2023-01-28T00:06:25.187Z,0.90
2023-01-28T00:07:26.960Z,0.86
2023-01-28T00:08:28.687Z,0.86
2023-01-28T00:09:30.596Z,0.85
2023-01-28T00:10:32.413Z,0.86
2023-01-28T00:11:34.217Z,0.84
2023-01-28T00:12:35.924Z,0.80
2023-01-28T00:13:37.719Z,0.82
2023-01-28T00:14:40.256Z,0.82
2023-01-28T00:15:42.058Z,0.87
2023-01-28T00:16:43.821Z,0.83
2023-01-28T00:17:45.694Z,0.85
2023-01-28T00:18:47.484Z,0.86
2023-01-28T00:19:49.380Z,0.85
2023-01-28T00:20:58.937Z,0.86
2023-01-28T00:22:00.689Z,0.82
2023-01-28T00:23:02.576Z,0.78
2023-01-28T00:24:04.609Z,0.75
2023-01-28T00:25:06.576Z,0.75
2023-01-28T00:26:11.513Z,0.77
2023-01-28T00:27:13.453Z,0.79
2023-01-28T00:28:15.282Z,0.78
2023-01-28T00:29:17.207Z,0.79
2023-01-28T00:30:19.837Z,0.80
2023-01-28T00:31:23.205Z,0.80
2023-01-28T00:32:25.116Z,0.79
2023-01-28T00:33:29.600Z,0.82
2023-01-28T00:34:31.443Z,0.83
2023-01-28T00:35:33.406Z,0.87
2023-01-28T00:36:39.454Z,0.88
2023-01-28T00:37:41.225Z,0.87
2023-01-28T00:38:43.094Z,0.85
2023-01-28T00:39:44.835Z,0.83
2023-01-28T00:40:46.936Z,0.83
2023-01-28T00:41:48.759Z,0.84
2023-01-28T00:42:50.587Z,0.85
2023-01-28T00:43:53.120Z,0.82
2023-01-28T00:44:54.937Z,0.81
2023-01-28T00:45:56.892Z,0.85
2023-01-28T00:46:58.719Z,0.85
2023-01-28T00:48:00.556Z,0.83
2023-01-28T00:49:02.366Z,0.85
2023-01-28T00:50:04.241Z,0.86
2023-01-28T00:51:06.747Z,0.85
2023-01-28T00:52:08.494Z,0.86
2023-01-28T00:53:10.262Z,0.86
2023-01-28T00:54:12.736Z,0.84
2023-01-28T00:55:15.460Z,0.82
2023-01-28T00:56:18.326Z,0.83
2023-01-28T00:57:20.126Z,0.78
2023-01-28T00:58:24.351Z,0.76
2023-01-28T00:59:27.242Z,0.78
2023-01-28T01:00:29.053Z,0.80
2023-01-28T01:01:30.987Z,0.78
2023-01-28T01:02:32.967Z,0.78
2023-01-28T01:03:34.914Z,0.78
2023-01-28T01:04:36.648Z,0.79
2023-01-28T01:05:38.592Z,0.79
2023-01-28T01:06:40.984Z,0.77
2023-01-28T01:07:42.956Z,0.75
2023-01-28T01:08:50.690Z,0.76
2023-01-28T01:09:52.482Z,0.72
2023-01-28T01:10:58.631Z,0.72
2023-01-28T01:12:00.497Z,0.74
2023-01-28T01:13:02.281Z,0.74
2023-01-28T01:14:05.482Z,0.76
2023-01-28T01:15:10.545Z,0.76
2023-01-28T01:16:14.110Z,0.76
2023-01-28T01:17:16.035Z,0.77
2023-01-28T01:18:18.315Z,0.78
2023-01-28T01:19:20.081Z,0.78
2023-01-28T01:20:23.397Z,0.79
2023-01-28T01:21:26.733Z,0.78
2023-01-28T01:22:28.537Z,0.79
2023-01-28T01:23:31.334Z,0.80
2023-01-28T01:24:34.352Z,0.80
2023-01-28T01:25:36.213Z,0.79
2023-01-28T01:26:38.024Z,0.80
2023-01-28T01:27:39.853Z,0.79
2023-01-28T01:28:41.996Z,0.82
2023-01-28T01:29:43.831Z,0.83
2023-01-28T01:30:45.590Z,0.84
2023-01-28T01:31:47.371Z,0.85
2023-01-28T01:32:49.574Z,0.86
2023-01-28T01:33:52.286Z,0.88
2023-01-28T01:34:54.136Z,0.87
2023-01-28T01:35:56.587Z,0.87
2023-01-28T01:36:58.517Z,0.87
2023-01-28T01:38:00.612Z,0.89
2023-01-28T01:39:02.364Z,0.90
2023-01-28T01:40:05.367Z,0.88
2023-01-28T01:41:08.041Z,0.89
2023-01-28T01:42:14.042Z,0.90
2023-01-28T01:43:19.896Z,0.88
2023-01-28T01:44:40.131Z,0.86
2023-01-28T01:45:42.061Z,0.82
2023-01-28T01:46:50.369Z,0.80
2023-01-28T01:47:52.092Z,0.80
2023-01-28T01:48:55.243Z,0.80
2023-01-28T01:49:57.279Z,0.80
2023-01-28T01:51:01.406Z,0.79
2023-01-28T01:52:15.815Z,0.77
2023-01-28T01:53:19.142Z,0.80
2023-01-28T01:54:22.220Z,0.82
2023-01-28T01:55:26.047Z,0.84
2023-01-28T01:56:30.720Z,0.84
2023-01-28T01:57:34.202Z,0.85
2023-01-28T01:58:37.364Z,0.84
2023-01-28T01:59:40.427Z,0.85
2023-01-28T02:00:42.729Z,0.86
2023-01-28T02:01:46.000Z,0.83
2023-01-28T02:02:49.732Z,0.82
2023-01-28T02:04:10.028Z,0.84
2023-01-28T02:05:13.200Z,0.84
2023-01-28T02:06:15.276Z,0.85
2023-01-28T02:07:18.393Z,0.83
2023-01-28T02:08:22.819Z,0.84
2023-01-28T02:09:32.605Z,0.83
2023-01-28T02:10:34.505Z,0.82
2023-01-28T02:11:36.675Z,0.82
2023-01-28T02:12:41.012Z,0.82
2023-01-28T02:13:46.772Z,0.83
2023-01-28T02:14:54.807Z,0.80
2023-01-28T02:15:58.658Z,0.80
2023-01-28T02:17:02.068Z,0.81
2023-01-28T02:18:03.983Z,0.82
2023-01-28T02:19:06.752Z,0.83
2023-01-28T02:20:12.915Z,0.83
2023-01-28T02:21:17.480Z,0.83
2023-01-28T02:22:38.054Z,0.83
2023-01-28T02:23:39.855Z,0.82
2023-01-28T02:24:53.842Z,0.83
2023-01-28T02:26:22.013Z,0.86
2023-01-28T02:27:42.376Z,0.87
2023-01-28T02:28:52.673Z,0.89
2023-01-28T02:30:03.478Z,0.92
2023-01-28T02:31:25.789Z,0.93
2023-01-28T02:32:43.067Z,0.90
2023-01-28T02:34:06.478Z,0.90
2023-01-28T02:35:14.827Z,0.86
2023-01-28T02:36:26.247Z,0.80
2023-01-28T02:37:31.360Z,0.79
2023-01-28T02:38:35.708Z,0.79
2023-01-28T02:39:41.083Z,0.78
2023-01-28T02:41:02.933Z,0.77
2023-01-28T02:42:07.247Z,0.76
2023-01-28T02:43:08.983Z,0.76
2023-01-28T02:44:10.875Z,0.75
2023-01-28T02:45:17.085Z,0.75
2023-01-28T02:46:37.584Z,0.75
2023-01-28T02:47:57.601Z,0.75
2023-01-28T02:48:59.600Z,0.75
2023-01-28T02:50:03.703Z,0.73
2023-01-28T02:51:10.283Z,0.72
2023-01-28T02:52:46.182Z,0.73
2023-01-28T02:53:57.845Z,0.71
2023-01-28T02:55:11.047Z,0.75
2023-01-28T02:56:15.545Z,0.77
2023-01-28T02:57:43.414Z,0.78
2023-01-28T02:58:48.289Z,0.78
2023-01-28T02:59:57.459Z,0.78
2023-01-28T03:01:19.269Z,0.78
2023-01-28T03:02:21.138Z,0.77
2023-01-28T03:03:25.983Z,0.78
2023-01-28T03:04:30.534Z,0.80
2023-01-28T03:05:50.735Z,0.80
2023-01-28T03:06:55.255Z,0.77
2023-01-28T03:07:57.268Z,0.77
2023-01-28T03:09:20.296Z,0.77
2023-01-28T03:10:24.349Z,0.75
2023-01-28T03:11:45.927Z,0.75
2023-01-28T03:13:08.506Z,0.73
2023-01-28T03:14:29.087Z,0.71
2023-01-28T03:15:55.190Z,0.74
2023-01-28T03:17:18.537Z,0.75
2023-01-28T03:18:51.879Z,0.75
2023-01-28T03:20:13.181Z,0.76
2023-01-28T03:21:41.446Z,0.74
2023-01-28T03:23:07.766Z,0.74
2023-01-28T03:24:31.827Z,0.76
2023-01-28T03:25:53.436Z,0.69
2023-01-28T03:27:17.031Z,0.66
2023-01-28T03:28:39.789Z,0.63
2023-01-28T03:30:00.897Z,0.67
2023-01-28T03:31:24.004Z,0.69
2023-01-28T03:32:44.513Z,0.71
2023-01-28T03:34:05.113Z,0.73
2023-01-28T03:35:27.737Z,0.74
2023-01-28T03:36:48.897Z,0.74
2023-01-28T03:37:50.918Z,0.74
2023-01-28T03:38:52.808Z,0.76
2023-01-28T03:39:58.217Z,0.77
2023-01-28T03:41:03.036Z,0.79
2023-01-28T03:42:12.188Z,0.77
2023-01-28T03:43:14.101Z,0.74
2023-01-28T03:44:34.620Z,0.73
2023-01-28T03:45:37.562Z,0.75
2023-01-28T03:46:40.347Z,0.74
2023-01-28T03:47:42.190Z,0.75
2023-01-28T03:48:44.677Z,0.74
2023-01-28T03:49:50.839Z,0.76
2023-01-28T03:50:53.049Z,0.76
2023-01-28T03:51:54.959Z,0.77
2023-01-28T03:53:16.436Z,0.76
2023-01-28T03:54:18.905Z,0.75
2023-01-28T03:55:20.904Z,0.76
2023-01-28T03:56:24.692Z,0.75
2023-01-28T03:57:27.473Z,0.75
2023-01-28T03:58:53.222Z,0.73
2023-01-28T03:59:55.301Z,0.70
2023-01-28T04:00:57.151Z,0.68
2023-01-28T04:01:59.148Z,0.71
2023-01-28T04:03:01.381Z,0.70
2023-01-28T04:04:03.384Z,0.69
2023-01-28T04:05:07.200Z,0.68
2023-01-28T04:06:09.993Z,0.71
2023-01-28T04:07:14.456Z,0.69
2023-01-28T04:08:16.396Z,0.69
2023-01-28T04:09:18.339Z,0.68
2023-01-28T04:10:20.221Z,0.66
2023-01-28T04:11:25.399Z,0.65
2023-01-28T04:12:27.181Z,0.66
2023-01-28T04:13:29.047Z,0.68
2023-01-28T04:14:30.873Z,0.69
2023-01-28T04:15:32.746Z,0.69
2023-01-28T04:16:34.609Z,0.65
2023-01-28T04:17:36.971Z,0.64
2023-01-28T04:18:38.964Z,0.62
2023-01-28T04:19:40.793Z,0.65
2023-01-28T04:20:42.566Z,0.67
2023-01-28T04:21:44.410Z,0.66
2023-01-28T04:22:46.187Z,0.66
2023-01-28T04:23:48.038Z,0.63
2023-01-28T04:24:49.899Z,0.59
2023-01-28T04:25:52.041Z,0.59
2023-01-28T04:26:55.544Z,0.60
2023-01-28T04:27:58.287Z,0.61
2023-01-28T04:29:00.266Z,0.63
2023-01-28T04:30:02.075Z,0.62
2023-01-28T04:31:03.976Z,0.65
2023-01-28T04:32:05.883Z,0.64
2023-01-28T04:33:07.738Z,0.59
2023-01-28T04:34:10.241Z,0.58
2023-01-28T04:35:12.115Z,0.57
2023-01-28T04:36:13.981Z,0.60
2023-01-28T04:37:15.892Z,0.57
2023-01-28T04:38:17.673Z,0.57
2023-01-28T04:39:19.549Z,0.58
2023-01-28T04:40:21.339Z,0.58
2023-01-28T04:41:23.094Z,0.62
2023-01-28T04:42:24.944Z,0.65
2023-01-28T04:43:26.738Z,0.68
2023-01-28T04:44:28.659Z,0.71
2023-01-28T04:45:31.264Z,0.72
2023-01-28T04:46:33.378Z,0.73
2023-01-28T04:47:35.141Z,0.75
2023-01-28T04:48:36.986Z,0.70
2023-01-28T04:49:38.889Z,0.67
2023-01-28T04:50:41.011Z,0.65
2023-01-28T04:51:42.923Z,0.64
2023-01-28T04:52:44.944Z,0.65
2023-01-28T04:53:46.762Z,0.67
2023-01-28T04:54:48.497Z,0.66
2023-01-28T04:55:50.327Z,0.59
2023-01-28T04:56:52.169Z,0.54
2023-01-28T04:57:53.971Z,0.48
2023-01-28T04:58:55.937Z,0.47
2023-01-28T04:59:57.793Z,0.49
2023-01-28T05:01:00.380Z,0.44
2023-01-28T05:02:02.397Z,0.43
2023-01-28T05:03:04.216Z,0.45
2023-01-28T05:04:06.265Z,0.49
2023-01-28T05:05:09.345Z,0.51
2023-01-28T05:06:11.212Z,0.52
2023-01-28T05:07:13.143Z,0.52
2023-01-28T05:08:14.953Z,0.56
2023-01-28T05:09:17.323Z,0.54
2023-01-28T05:10:19.925Z,0.52
2023-01-28T05:11:21.915Z,0.54
2023-01-28T05:12:23.712Z,0.57
2023-01-28T05:13:25.616Z,0.57
2023-01-28T05:14:27.416Z,0.54
2023-01-28T05:15:29.177Z,0.53
2023-01-28T05:16:32.461Z,0.52
2023-01-28T05:17:34.324Z,0.52
2023-01-28T05:18:36.098Z,0.55
2023-01-28T05:19:37.883Z,0.56
2023-01-28T05:20:39.783Z,0.56
2023-01-28T05:21:41.620Z,0.55
2023-01-28T05:22:43.557Z,0.51
2023-01-28T05:23:45.298Z,0.47
2023-01-28T05:24:47.095Z,0.46
2023-01-28T05:25:49.174Z,0.44
2023-01-28T05:26:51.050Z,0.43
2023-01-28T05:27:52.817Z,0.39
2023-01-28T05:28:54.669Z,0.36
2023-01-28T05:29:56.655Z,0.30
2023-01-28T05:31:03.203Z,0.26
2023-01-28T05:32:05.249Z,0.30
2023-01-28T05:33:07.021Z,0.34
2023-01-28T05:34:09.012Z,0.33
2023-01-28T05:35:10.846Z,0.32
2023-01-28T05:36:12.638Z,0.31
2023-01-28T05:37:14.630Z,0.31
2023-01-28T05:38:16.787Z,0.32
2023-01-28T05:39:18.499Z,0.32
2023-01-28T05:40:20.444Z,0.32
2023-01-28T05:41:22.334Z,0.30
2023-01-28T05:42:24.140Z,0.19
2023-01-28T05:43:25.955Z,0.21
2023-01-28T05:44:27.844Z,0.20
2023-01-28T05:45:29.740Z,0.17
2023-01-28T05:46:31.688Z,0.18
2023-01-28T05:47:34.529Z,0.16
2023-01-28T05:48:36.371Z,0.12
2023-01-28T05:49:38.153Z,0.11
2023-01-28T05:50:39.978Z,0.06
2023-01-28T05:51:41.871Z,0.06
2023-01-28T05:52:44.103Z,0.06
2023-01-28T05:53:45.846Z,0.09
2023-01-28T05:54:47.697Z,0.11
2023-01-28T05:55:53.753Z,0.10
2023-01-28T05:56:55.550Z,0.11
2023-01-28T05:57:57.488Z,0.14
2023-01-28T05:58:59.318Z,0.14
2023-01-28T06:00:01.108Z,0.16
2023-01-28T06:01:02.859Z,0.16
2023-01-28T06:02:04.710Z,0.17
2023-01-28T06:03:06.602Z,0.19
2023-01-28T06:04:08.481Z,0.22
2023-01-28T06:05:10.450Z,0.19
2023-01-28T06:06:12.244Z,0.18
2023-01-28T06:07:14.125Z,0.21
2023-01-28T06:08:16.022Z,0.25
2023-01-28T06:09:17.898Z,0.23
2023-01-28T06:10:19.719Z,0.19
2023-01-28T06:11:21.510Z,0.16
2023-01-28T06:12:23.257Z,0.17
2023-01-28T06:13:25.194Z,0.17
2023-01-28T06:14:26.978Z,0.19
2023-01-28T06:15:29.002Z,0.22
2023-01-28T06:16:30.921Z,0.18
2023-01-28T06:17:32.723Z,0.19
2023-01-28T06:18:34.775Z,0.17
2023-01-28T06:19:36.503Z,0.15
2023-01-28T06:20:38.253Z,0.14
2023-01-28T06:21:40.106Z,0.14
2023-01-28T06:22:41.908Z,0.13
2023-01-28T06:23:43.804Z,0.14
2023-01-28T06:24:45.605Z,0.14
2023-01-28T06:25:47.418Z,0.18
2023-01-28T06:26:49.184Z,0.17
2023-01-28T06:27:50.979Z,0.13
2023-01-28T06:28:52.848Z,0.11
2023-01-28T06:29:54.762Z,0.12
2023-01-28T06:30:56.575Z,0.14
2023-01-28T06:31:58.418Z,0.14
2023-01-28T06:33:00.243Z,0.15
2023-01-28T06:34:02.211Z,0.17
2023-01-28T06:35:04.504Z,0.22
2023-01-28T06:36:09.243Z,0.22
2023-01-28T06:37:14.348Z,0.21
2023-01-28T06:38:16.346Z,0.22
2023-01-28T06:39:18.270Z,0.23
2023-01-28T06:40:20.749Z,0.16
2023-01-28T06:41:22.695Z,0.13
2023-01-28T06:42:24.487Z,0.10
2023-01-28T06:43:30.942Z,0.08
2023-01-28T06:44:32.804Z,0.07
2023-01-28T06:45:34.625Z,-0.01
2023-01-28T06:46:36.477Z,-0.02
2023-01-28T06:47:41.168Z,-0.05
2023-01-28T06:48:42.992Z,0.00
2023-01-28T06:49:44.859Z,0.00
2023-01-28T06:50:49.972Z,0.01
2023-01-28T06:51:51.806Z,0.03
2023-01-28T06:52:53.610Z,0.06
2023-01-28T06:53:55.418Z,0.07
2023-01-28T06:54:57.188Z,0.08
2023-01-28T06:55:59.120Z,0.11
2023-01-28T06:57:00.924Z,0.11
2023-01-28T06:58:02.686Z,0.09
2023-01-28T06:59:04.588Z,0.05
2023-01-28T07:00:08.701Z,0.03
2023-01-28T07:01:10.608Z,0.02
2023-01-28T07:02:12.476Z,0.03
2023-01-28T07:03:14.388Z,0.06
2023-01-28T07:04:16.259Z,0.07
2023-01-28T07:05:18.387Z,0.03
2023-01-28T07:06:20.297Z,0.02
2023-01-28T07:07:22.077Z,0.04
2023-01-28T07:08:23.908Z,0.09
2023-01-28T07:09:25.774Z,0.08
2023-01-28T07:10:27.559Z,0.06
2023-01-28T07:11:29.441Z,0.04
2023-01-28T07:12:31.237Z,0.03
2023-01-28T07:13:33.114Z,0.07
2023-01-28T07:14:34.972Z,0.09
2023-01-28T07:15:37.127Z,0.07
2023-01-28T07:16:39.122Z,0.04
2023-01-28T07:17:44.067Z,0.02
2023-01-28T07:18:46.030Z,0.07
2023-01-28T07:19:47.839Z,0.11
2023-01-28T07:20:49.721Z,0.09
2023-01-28T07:21:51.533Z,0.07
2023-01-28T07:22:53.406Z,0.07
2023-01-28T07:23:56.278Z,0.08
2023-01-28T07:24:59.237Z,0.11
2023-01-28T07:26:01.947Z,0.15
2023-01-28T07:27:05.041Z,0.15
2023-01-28T07:28:07.100Z,0.17
2023-01-28T07:29:09.350Z,0.19
2023-01-28T07:30:11.593Z,0.17
2023-01-28T07:31:13.939Z,0.19
2023-01-28T07:32:15.864Z,0.24
2023-01-28T07:33:18.125Z,0.24
2023-01-28T07:34:20.001Z,0.25
2023-01-28T07:35:21.949Z,0.27
2023-01-28T07:36:23.803Z,0.30
2023-01-28T07:37:25.749Z,0.28
2023-01-28T07:38:27.539Z,0.29
2023-01-28T07:39:29.305Z,0.28
2023-01-28T07:40:31.095Z,0.29
2023-01-28T07:41:32.899Z,0.29
2023-01-28T07:42:34.732Z,0.28
2023-01-28T07:44:37.763Z,0.31
2023-01-28T07:45:40.814Z,0.32
2023-01-28T07:46:42.845Z,0.33
2023-01-28T07:47:45.069Z,0.35
2023-01-28T07:48:47.105Z,0.36
2023-01-28T07:49:49.076Z,0.36
2023-01-28T07:50:52.183Z,0.34
2023-01-28T07:51:54.200Z,0.35
2023-01-28T07:52:57.532Z,0.36
2023-01-28T07:53:59.567Z,0.37
2023-01-28T07:55:01.662Z,0.38
2023-01-28T07:56:05.459Z,0.42
2023-01-28T07:57:10.267Z,0.40
2023-01-28T07:58:12.900Z,0.38
2023-01-28T07:59:14.973Z,0.36
2023-01-28T08:00:17.706Z,0.35
2023-01-28T08:01:20.017Z,0.33
2023-01-28T08:02:22.040Z,0.35
2023-01-28T08:03:24.181Z,0.33
2023-01-28T08:04:26.249Z,0.32
2023-01-28T08:05:45.494Z,0.30
2023-01-28T08:06:47.496Z,0.33
2023-01-28T08:07:49.788Z,0.33
2023-01-28T08:08:51.823Z,0.35
2023-01-28T08:09:53.799Z,0.38
2023-01-28T08:10:55.949Z,0.41
2023-01-28T08:11:57.925Z,0.44
2023-01-28T08:12:59.976Z,0.45
2023-01-28T08:14:01.986Z,0.49
2023-01-28T08:15:05.760Z,0.49
2023-01-28T08:16:08.496Z,0.46
2023-01-28T08:17:10.432Z,0.45
2023-01-28T08:18:14.647Z,0.45
2023-01-28T08:19:19.006Z,0.47
2023-01-28T08:20:20.989Z,0.49
2023-01-28T08:21:23.172Z,0.47
2023-01-28T08:22:28.874Z,0.44
2023-01-28T08:23:34.685Z,0.45
2023-01-28T08:24:36.679Z,0.46
2023-01-28T08:25:39.529Z,0.48
2023-01-28T08:26:41.476Z,0.48
2023-01-28T08:27:43.420Z,0.47
2023-01-28T08:28:45.356Z,0.48
2023-01-28T08:29:47.372Z,0.47
2023-01-28T08:30:49.627Z,0.44
2023-01-28T08:31:51.593Z,0.45
2023-01-28T08:32:58.269Z,0.44
2023-01-28T08:34:02.229Z,0.47
2023-01-28T08:35:05.634Z,0.50
2023-01-28T08:36:08.058Z,0.51
2023-01-28T08:37:09.892Z,0.51
2023-01-28T08:38:15.645Z,0.49
2023-01-28T08:39:17.760Z,0.50
2023-01-28T08:40:20.184Z,0.52
2023-01-28T08:41:23.065Z,0.56
2023-01-28T08:42:25.112Z,0.54
2023-01-28T08:43:27.263Z,0.54
2023-01-28T08:44:29.288Z,0.56
2023-01-28T08:45:32.280Z,0.57
2023-01-28T08:46:34.322Z,0.55
2023-01-28T08:47:36.336Z,0.56
2023-01-28T08:48:38.800Z,0.57
2023-01-28T08:49:40.751Z,0.56
2023-01-28T08:50:43.601Z,0.57
2023-01-28T08:51:45.563Z,0.55
2023-01-28T08:52:50.931Z,0.51
2023-01-28T08:53:53.176Z,0.53
2023-01-28T08:54:55.203Z,0.55
2023-01-28T08:55:57.495Z,0.56
2023-01-28T08:56:59.464Z,0.58
2023-01-28T08:58:06.053Z,0.62
2023-01-28T08:59:08.077Z,0.66
2023-01-28T09:00:13.773Z,0.71
2023-01-28T09:01:15.897Z,0.75
2023-01-28T09:02:30.850Z,0.78
2023-01-28T09:03:34.378Z,0.83
2023-01-28T09:04:36.122Z,0.83
2023-01-28T09:05:39.093Z,0.79
2023-01-28T09:06:41.063Z,0.82
2023-01-28T09:07:43.144Z,0.83
2023-01-28T09:08:45.141Z,0.86
2023-01-28T09:09:47.130Z,0.81
2023-01-28T09:10:49.131Z,0.81
2023-01-28T09:11:51.109Z,0.82
2023-01-28T09:12:53.135Z,0.80
2023-01-28T09:13:55.303Z,0.79
2023-01-28T09:14:57.427Z,0.75
2023-01-28T09:15:59.531Z,0.67
2023-01-28T09:17:01.634Z,0.70
2023-01-28T09:18:04.585Z,0.70
2023-01-28T09:19:06.593Z,0.68
2023-01-28T09:20:09.324Z,0.70
2023-01-28T09:21:11.357Z,0.71
2023-01-28T09:22:13.410Z,0.71
2023-01-28T09:23:15.507Z,0.72
2023-01-28T09:24:18.653Z,0.69
2023-01-28T09:25:20.731Z,0.71
2023-01-28T09:26:22.759Z,0.70
2023-01-28T09:27:24.737Z,0.74
2023-01-28T09:28:26.828Z,0.73
2023-01-28T09:29:29.001Z,0.75
2023-01-28T09:30:31.625Z,0.76
2023-01-28T09:31:33.634Z,0.76
2023-01-28T09:32:35.686Z,0.79
2023-01-28T09:33:39.665Z,0.80
2023-01-28T09:34:41.772Z,0.80
2023-01-28T09:35:43.706Z,0.85
2023-01-28T09:36:45.694Z,0.87
2023-01-28T09:37:48.589Z,0.89
2023-01-28T09:38:50.628Z,0.94
2023-01-28T09:39:52.687Z,0.95
2023-01-28T09:40:56.422Z,0.98
2023-01-28T09:42:22.596Z,0.97
2023-01-28T09:43:42.955Z,0.92
2023-01-28T09:45:02.283Z,0.89
2023-01-28T09:46:07.533Z,0.87
2023-01-28T09:47:20.614Z,0.87
2023-01-28T09:48:26.586Z,0.91
2023-01-28T09:49:37.964Z,0.88
2023-01-28T09:50:44.532Z,0.84
2023-01-28T09:51:52.634Z,0.87
2023-01-28T09:53:00.154Z,0.83
2023-01-28T09:54:19.849Z,0.84
2023-01-28T09:55:40.588Z,0.79
2023-01-28T09:56:47.528Z,0.82
2023-01-28T09:57:54.023Z,0.83
2023-01-28T09:58:57.456Z,0.86
2023-01-28T09:59:59.665Z,0.89
2023-01-28T10:01:13.796Z,0.89
2023-01-28T10:02:55.217Z,0.97
2023-01-28T10:04:25.045Z,1.02
2023-01-28T10:06:05.787Z,1.08
2023-01-28T10:07:16.382Z,1.15
2023-01-28T10:08:18.383Z,1.17
2023-01-28T10:09:35.216Z,1.19
2023-01-28T10:11:11.441Z,1.19
2023-01-28T10:12:38.613Z,1.20
2023-01-28T10:13:55.692Z,1.22
2023-01-28T10:15:28.124Z,1.23
2023-01-28T10:16:38.819Z,1.25
2023-01-28T10:17:51.047Z,1.28
2023-01-28T10:19:01.594Z,1.26
2023-01-28T10:20:12.952Z,1.23
2023-01-28T10:21:39.706Z,1.24
2023-01-28T10:22:51.342Z,1.26
2023-01-28T10:24:02.060Z,1.26
2023-01-28T10:25:14.500Z,1.22
2023-01-28T10:26:25.065Z,1.23
2023-01-28T10:27:31.013Z,1.24
2023-01-28T10:28:35.279Z,1.20
2023-01-28T10:29:40.150Z,1.22
2023-01-28T10:30:45.323Z,1.25
2023-01-28T10:31:55.860Z,1.25
2023-01-28T10:33:20.836Z,1.25
2023-01-28T10:34:23.626Z,1.23
2023-01-28T10:35:26.769Z,1.22
2023-01-28T10:36:29.912Z,1.21
2023-01-28T10:37:35.105Z,1.20
2023-01-28T10:38:37.051Z,1.18
2023-01-28T10:39:39.105Z,1.18
2023-01-28T10:40:48.322Z,1.14
2023-01-28T10:41:57.895Z,1.19
2023-01-28T10:43:00.426Z,1.21
2023-01-28T10:44:02.544Z,1.20
2023-01-28T10:45:10.227Z,1.20
2023-01-28T10:46:22.722Z,1.20
2023-01-28T10:47:32.115Z,1.23
2023-01-28T10:48:38.125Z,1.23
2023-01-28T10:49:45.985Z,1.25
2023-01-28T10:51:02.178Z,1.26
2023-01-28T10:52:12.776Z,1.23
2023-01-28T10:53:14.801Z,1.24
2023-01-28T10:54:29.476Z,1.27
2023-01-28T10:55:54.578Z,1.28
2023-01-28T10:57:01.601Z,1.24
2023-01-28T10:58:05.496Z,1.24
2023-01-28T10:59:23.703Z,1.22
2023-01-28T11:00:35.992Z,1.23
2023-01-28T11:01:46.394Z,1.24
2023-01-28T11:02:49.707Z,1.25
2023-01-28T11:03:57.155Z,1.26
2023-01-28T11:05:18.307Z,1.29
2023-01-28T11:06:30.100Z,1.28
2023-01-28T11:07:32.206Z,1.30
2023-01-28T11:08:45.474Z,1.31
2023-01-28T11:09:52.258Z,1.31
2023-01-28T11:10:55.535Z,1.31
2023-01-28T11:11:58.986Z,1.30
2023-01-28T11:13:05.006Z,1.29
2023-01-28T11:14:19.694Z,1.27
2023-01-28T11:15:21.661Z,1.30
2023-01-28T11:16:23.747Z,1.32
2023-01-28T11:17:29.594Z,1.33
2023-01-28T11:18:36.043Z,1.33
2023-01-28T11:19:39.584Z,1.31
2023-01-28T11:20:49.436Z,1.33
2023-01-28T11:21:54.963Z,1.31
2023-01-28T11:22:58.111Z,1.27
2023-01-28T11:24:18.303Z,1.20
2023-01-28T11:25:33.801Z,1.20
2023-01-28T11:26:39.973Z,1.23
2023-01-28T11:27:49.190Z,1.26
2023-01-28T11:28:52.883Z,1.20
2023-01-28T11:29:58.367Z,1.19
2023-01-28T11:31:03.204Z,1.20
2023-01-28T11:32:05.343Z,1.21
2023-01-28T11:33:12.995Z,1.19
2023-01-28T11:34:18.180Z,1.17
2023-01-28T11:35:30.778Z,1.18
2023-01-28T11:36:35.310Z,1.22
2023-01-28T11:37:38.279Z,1.24
2023-01-28T11:38:50.031Z,1.26
2023-01-28T11:40:21.804Z,1.29
2023-01-28T11:41:37.131Z,1.34
2023-01-28T11:42:39.067Z,1.38
2023-01-28T11:43:41.244Z,1.42
2023-01-28T11:44:44.322Z,1.40
2023-01-28T11:46:20.472Z,1.39
2023-01-28T11:48:05.587Z,1.33
2023-01-28T11:49:42.781Z,1.39
2023-01-28T11:51:02.744Z,1.42
2023-01-28T11:52:38.763Z,1.42
2023-01-28T11:54:16.847Z,1.37
2023-01-28T11:55:28.776Z,1.33
2023-01-28T11:56:39.386Z,1.34
2023-01-28T11:57:43.958Z,1.35
2023-01-28T11:58:46.591Z,1.35
2023-01-28T12:00:20.877Z,1.35
2023-01-28T12:01:34.983Z,1.34
2023-01-28T12:03:15.500Z,1.35
2023-01-28T12:04:40.624Z,1.38
2023-01-28T12:05:45.463Z,1.31
2023-01-28T12:07:01.239Z,1.32
2023-01-28T12:08:33.951Z,1.29
2023-01-28T12:09:43.994Z,1.28
2023-01-28T12:11:00.731Z,1.27
2023-01-28T12:12:21.288Z,1.29
2023-01-28T12:14:00.648Z,1.29
2023-01-28T12:15:26.977Z,1.29
2023-01-28T12:16:43.310Z,1.30
2023-01-28T12:18:03.021Z,1.29
2023-01-28T12:19:17.216Z,1.29
2023-01-28T12:20:19.557Z,1.29
2023-01-28T12:21:39.988Z,1.32
2023-01-28T12:22:58.414Z,1.33
2023-01-28T12:24:00.360Z,1.30
2023-01-28T12:25:21.543Z,1.31
2023-01-28T12:26:53.014Z,1.30
2023-01-28T12:28:16.096Z,1.30
2023-01-28T12:29:47.752Z,1.30
2023-01-28T12:31:01.817Z,1.32
2023-01-28T12:32:18.623Z,1.31
2023-01-28T12:33:35.125Z,1.26
2023-01-28T12:34:49.262Z,1.25
2023-01-28T12:35:58.755Z,1.21
2023-01-28T12:37:22.088Z,1.18
2023-01-28T12:38:38.003Z,1.17
2023-01-28T12:39:43.745Z,1.19
2023-01-28T12:40:58.731Z,1.22
2023-01-28T12:42:06.636Z,1.24
2023-01-28T12:43:11.464Z,1.24
2023-01-28T12:44:51.944Z,1.25
2023-01-28T12:46:12.466Z,1.23
2023-01-28T12:47:20.002Z,1.20
2023-01-28T12:48:29.998Z,1.18
2023-01-28T12:49:41.419Z,1.18
2023-01-28T12:50:46.904Z,1.16
2023-01-28T12:51:48.824Z,1.17
2023-01-28T12:52:59.914Z,1.18
2023-01-28T12:54:05.709Z,1.16
2023-01-28T12:55:39.849Z,1.13
2023-01-28T12:56:45.622Z,1.13
2023-01-28T12:57:49.057Z,1.12
2023-01-28T12:59:16.903Z,1.14
2023-01-28T13:00:26.419Z,1.17
2023-01-28T13:01:38.061Z,1.17
2023-01-28T13:02:43.206Z,1.16
2023-01-28T13:04:20.563Z,1.15
2023-01-28T13:05:27.935Z,1.17
2023-01-28T13:06:42.331Z,1.17
2023-01-28T13:07:48.561Z,1.15
2023-01-28T13:08:51.463Z,1.12
2023-01-28T13:09:55.604Z,1.13
2023-01-28T13:10:59.357Z,1.12
2023-01-28T13:12:02.574Z,1.13
2023-01-28T13:13:06.009Z,1.12
2023-01-28T13:14:08.035Z,1.11
2023-01-28T13:15:15.248Z,1.11
2023-01-28T13:16:19.367Z,1.10
2023-01-28T13:17:30.624Z,1.11
2023-01-28T13:18:41.344Z,1.13
2023-01-28T13:19:43.148Z,1.15
2023-01-28T13:20:54.104Z,1.18
2023-01-28T13:21:57.179Z,1.17
2023-01-28T13:23:03.567Z,1.16
2023-01-28T13:24:07.299Z,1.15
2023-01-28T13:25:24.983Z,1.15
2023-01-28T13:26:26.772Z,1.15
2023-01-28T13:27:29.191Z,1.17
2023-01-28T13:28:32.499Z,1.16
2023-01-28T13:29:34.645Z,1.13
2023-01-28T13:30:47.725Z,1.10
2023-01-28T13:31:52.325Z,1.09
2023-01-28T13:33:17.403Z,1.08
2023-01-28T13:34:37.765Z,1.07
2023-01-28T13:35:40.598Z,1.06
2023-01-28T13:36:47.355Z,1.00
2023-01-28T13:37:49.358Z,1.00
2023-01-28T13:39:01.347Z,1.04
2023-01-28T13:40:09.865Z,1.07
2023-01-28T13:41:11.714Z,1.06
2023-01-28T13:42:27.422Z,1.06
2023-01-28T13:43:29.224Z,1.07
2023-01-28T13:44:32.812Z,1.08
2023-01-28T13:45:34.795Z,1.09
2023-01-28T13:46:38.731Z,1.07
2023-01-28T13:47:43.822Z,1.06
2023-01-28T13:48:47.017Z,1.06
2023-01-28T13:49:50.626Z,1.07
2023-01-28T13:50:54.509Z,1.05
2023-01-28T13:52:09.417Z,1.01
2023-01-28T13:53:21.994Z,0.98
2023-01-28T13:54:25.315Z,0.99
2023-01-28T13:55:45.497Z,1.00
2023-01-28T13:57:00.056Z,0.99
2023-01-28T13:58:04.953Z,1.00
2023-01-28T13:59:29.932Z,1.02
2023-01-28T14:00:43.651Z,0.99
2023-01-28T14:01:45.551Z,1.00
2023-01-28T14:02:50.479Z,1.04
2023-01-28T14:03:58.265Z,1.06
2023-01-28T14:05:15.637Z,1.06
2023-01-28T14:06:23.335Z,1.08
2023-01-28T14:07:44.010Z,1.09
2023-01-28T14:08:53.747Z,1.09
2023-01-28T14:10:18.001Z,0.99
2023-01-28T14:11:29.967Z,1.00
2023-01-28T14:12:52.078Z,1.04
2023-01-28T14:14:03.077Z,1.04
2023-01-28T14:15:28.697Z,1.04
2023-01-28T14:16:52.575Z,1.02
2023-01-28T14:17:56.367Z,1.00
2023-01-28T14:19:00.591Z,1.05
2023-01-28T14:20:03.490Z,1.05
2023-01-28T14:21:16.512Z,1.07
2023-01-28T14:22:23.762Z,1.07
2023-01-28T14:23:27.862Z,1.04
2023-01-28T14:24:34.843Z,1.00
2023-01-28T14:25:51.567Z,0.97
2023-01-28T14:27:02.166Z,0.96
2023-01-28T14:28:06.022Z,0.94
2023-01-28T14:29:26.436Z,0.93
2023-01-28T14:30:46.909Z,0.93
2023-01-28T14:31:48.849Z,0.95
2023-01-28T14:32:52.697Z,0.96
2023-01-28T14:34:05.388Z,0.94
2023-01-28T14:35:09.371Z,0.94
2023-01-28T14:36:12.008Z,0.93
2023-01-28T14:37:15.440Z,0.94
2023-01-28T14:38:20.176Z,0.95
2023-01-28T14:39:27.065Z,0.94
2023-01-28T14:40:30.565Z,0.94
2023-01-28T14:41:32.671Z,0.94
2023-01-28T14:42:42.869Z,0.95
2023-01-28T14:43:44.828Z,0.96
2023-01-28T14:44:48.256Z,0.97
2023-01-28T14:45:59.267Z,0.94
2023-01-28T14:47:16.330Z,0.95